Time,TemperatureF,DewpointF,PressureIn,WindDirection,WindDirectionDegrees,WindSpeedMPH,WindSpeedGustMPH,Humidity,HourlyPrecipIn,Conditions,Clouds,dailyrainin,SoftwareType,DateUTC
2013-07-23 00:07:00,64.2,56.0,29.70,NNE,25,0.0,-999.0,75,-99.99,,,0.00,weatherlink.com 1.10,2013-07-23 05:07:00,
2013-07-23 00:21:00,63.2,56.0,29.70,NNE,25,0.0,-999.0,77,-99.99,,,0.00,weatherlink.com 1.10,2013-07-23 05:21:00,
2013-07-23 00:36:00,62.3,55.0,29.70,NNE,25,0.0,-999.0,78,-99.99,,,0.00,weatherlink.com 1.10,2013-07-23 05:36:00,
2013-07-23 00:51:00,61.6,55.0,29.72,NNE,25,0.0,-999.0,80,-99.99,,,0.00,weatherlink.com 1.10,2013-07-23 05:51:00,
2013-07-23 01:06:00,61.0,56.0,29.72,NNE,25,0.0,-999.0,82,-99.99,,,0.00,weatherlink.com 1.10,2013-07-23 06:06:00,
2013-07-23 01:21:00,60.7,56.0,29.73,NNE,25,0.0,-999.0,84,-99.99,,,0.00,weatherlink.com 1.10,2013-07-23 06:21:00,
2013-07-23 01:36:00,60.2,56.0,29.73,NNE,25,0.0,-999.0,85,-99.99,,,0.00,weatherlink.com 1.10,2013-07-23 06:36:00,
2013-07-23 01:51:00,59.8,55.0,29.73,NNE,25,0.0,-999.0,85,-99.99,,,0.00,weatherlink.com 1.10,2013-07-23 06:51:00,
2013-07-23 02:07:00,59.3,55.0,29.72,NNE,25,0.0,-999.0,85,-99.99,,,0.00,weatherlink.com 1.10,2013-07-23 07:07:00,
2013-07-23 02:21:00,58.9,54.0,29.73,NNE,25,0.0,-999.0,85,-99.99,,,0.00,weatherlink.com 1.10,2013-07-23 07:21:00,
2013-07-23 02:36:00,58.6,55.0,29.73,NNE,25,0.0,-999.0,86,-99.99,,,0.00,weatherlink.com 1.10,2013-07-23 07:36:00,
2013-07-23 02:51:00,58.1,54.0,29.73,NNE,25,0.0,-999.0,87,-99.99,,,0.00,weatherlink.com 1.10,2013-07-23 07:51:00,
2013-07-23 03:07:00,57.6,54.0,29.74,NNE,25,0.0,-999.0,87,-99.99,,,0.00,weatherlink.com 1.10,2013-07-23 08:07:00,
2013-07-23 03:21:00,57.2,54.0,29.74,NNE,25,0.0,-999.0,88,-99.99,,,0.00,weatherlink.com 1.10,2013-07-23 08:21:00,
2013-07-23 03:36:00,56.9,54.0,29.74,NNE,25,0.0,-999.0,89,-99.99,,,0.00,weatherlink.com 1.10,2013-07-23 08:36:00,
2013-07-23 03:51:00,56.6,54.0,29.74,NNE,25,0.0,-999.0,90,-99.99,,,0.00,weatherlink.com 1.10,2013-07-23 08:51:00,
2013-07-23 04:07:00,56.2,53.0,29.75,NNE,25,0.0,-999.0,90,-99.99,,,0.00,weatherlink.com 1.10,2013-07-23 09:07:00,
2013-07-23 04:22:00,55.9,53.0,29.75,NNE,25,0.0,-999.0,90,-99.99,,,0.00,weatherlink.com 1.10,2013-07-23 09:22:00,
2013-07-23 04:37:00,55.6,53.0,29.74,NNE,25,0.0,-999.0,90,-99.99,,,0.00,weatherlink.com 1.10,2013-07-23 09:37:00,
2013-07-23 04:52:00,55.3,53.0,29.75,NNE,25,0.0,-999.0,91,-99.99,,,0.00,weatherlink.com 1.10,2013-07-23 09:52:00,
2013-07-23 05:07:00,55.0,53.0,29.76,NNE,25,0.0,-999.0,91,-99.99,,,0.00,weatherlink.com 1.10,2013-07-23 10:07:00,
2013-07-23 05:22:00,54.8,53.0,29.75,NNE,25,0.0,-999.0,92,-99.99,,,0.00,weatherlink.com 1.10,2013-07-23 10:22:00,
2013-07-23 05:37:00,54.7,53.0,29.77,NNE,25,0.0,-999.0,92,-99.99,,,0.00,weatherlink.com 1.10,2013-07-23 10:37:00,
2013-07-23 05:52:00,54.5,53.0,29.78,NNE,25,0.0,-999.0,93,-99.99,,,0.00,weatherlink.com 1.10,2013-07-23 10:52:00,
2013-07-23 06:07:00,54.4,53.0,29.77,NNE,25,0.0,-999.0,93,-99.99,,,0.00,weatherlink.com 1.10,2013-07-23 11:07:00,
2013-07-23 06:22:00,54.2,52.0,29.79,NNE,25,0.0,-999.0,93,-99.99,,,0.00,weatherlink.com 1.10,2013-07-23 11:22:00,
2013-07-23 06:37:00,54.4,53.0,29.79,NNE,28,0.0,-999.0,94,-99.99,,,0.00,weatherlink.com 1.10,2013-07-23 11:37:00,
2013-07-23 06:52:00,54.7,53.0,29.80,NNE,28,0.0,-999.0,95,-99.99,,,0.00,weatherlink.com 1.10,2013-07-23 11:52:00,
2013-07-23 07:07:00,55.3,54.0,29.80,North,9,0.0,-999.0,95,-99.99,,,0.00,weatherlink.com 1.10,2013-07-23 12:07:00,
2013-07-23 07:22:00,55.7,54.0,29.81,North,9,1.0,-999.0,94,-99.99,,,0.00,weatherlink.com 1.10,2013-07-23 12:22:00,
2013-07-23 07:37:00,56.3,54.0,29.81,North,5,0.0,-999.0,92,-99.99,,,0.00,weatherlink.com 1.10,2013-07-23 12:37:00,
2013-07-23 07:52:00,56.9,54.0,29.81,North,360,0.0,-999.0,89,-99.99,,,0.00,weatherlink.com 1.10,2013-07-23 12:52:00,
2013-07-23 08:07:00,57.3,53.0,29.82,NW,321,0.0,-999.0,85,-99.99,,,0.00,weatherlink.com 1.10,2013-07-23 13:07:00,
2013-07-23 08:22:00,58.0,53.0,29.83,NNE,22,0.0,-999.0,83,-99.99,,,0.00,weatherlink.com 1.10,2013-07-23 13:22:00,
2013-07-23 08:37:00,58.4,53.0,29.84,North,9,4.0,-999.0,81,-99.99,,,0.00,weatherlink.com 1.10,2013-07-23 13:37:00,
2013-07-23 08:52:00,58.9,52.0,29.85,North,5,2.0,-999.0,79,-99.99,,,0.00,weatherlink.com 1.10,2013-07-23 13:52:00,
2013-07-23 09:07:00,59.6,52.0,29.84,North,11,4.0,-999.0,77,-99.99,,,0.00,weatherlink.com 1.10,2013-07-23 14:07:00,
2013-07-23 09:22:00,60.2,53.0,29.85,NNE,12,3.0,-999.0,76,-99.99,,,0.00,weatherlink.com 1.10,2013-07-23 14:22:00,
2013-07-23 09:37:00,61.0,54.0,29.85,NNE,28,1.0,-999.0,77,-99.99,,,0.00,weatherlink.com 1.10,2013-07-23 14:37:00,
2013-07-23 09:52:00,61.8,52.0,29.85,North,360,3.0,-999.0,70,-99.99,,,0.00,weatherlink.com 1.10,2013-07-23 14:52:00,
2013-07-23 10:08:00,62.6,53.0,29.85,North,355,0.0,-999.0,71,-99.99,,,0.00,weatherlink.com 1.10,2013-07-23 15:08:00,
2013-07-23 10:23:00,63.1,52.0,29.86,NNE,23,1.0,-999.0,68,-99.99,,,0.00,weatherlink.com 1.10,2013-07-23 15:23:00,
2013-07-23 10:38:00,64.2,55.0,29.87,North,350,1.0,-999.0,71,-99.99,,,0.00,weatherlink.com 1.10,2013-07-23 15:38:00,
2013-07-23 10:53:00,65.2,54.0,29.87,East,88,0.0,-999.0,68,-99.99,,,0.00,weatherlink.com 1.10,2013-07-23 15:53:00,
2013-07-23 11:08:00,66.0,54.0,29.88,North,5,0.0,-999.0,65,-99.99,,,0.00,weatherlink.com 1.10,2013-07-23 16:08:00,
2013-07-23 11:23:00,66.6,55.0,29.89,NE,42,0.0,-999.0,66,-99.99,,,0.00,weatherlink.com 1.10,2013-07-23 16:23:00,
2013-07-23 11:38:00,67.1,53.0,29.89,North,5,0.0,-999.0,61,-99.99,,,0.00,weatherlink.com 1.10,2013-07-23 16:38:00,
2013-07-23 11:53:00,68.3,54.0,29.89,NNE,24,0.0,-999.0,61,-99.99,,,0.00,weatherlink.com 1.10,2013-07-23 16:53:00,
2013-07-23 12:08:00,69.6,54.0,29.89,NE,56,0.0,-999.0,58,-99.99,,,0.00,weatherlink.com 1.10,2013-07-23 17:08:00,
2013-07-23 12:23:00,70.4,53.0,29.89,West,261,0.0,-999.0,54,-99.99,,,0.00,weatherlink.com 1.10,2013-07-23 17:23:00,
2013-07-23 12:38:00,70.9,55.0,29.89,North,9,4.0,-999.0,58,-99.99,,,0.00,weatherlink.com 1.10,2013-07-23 17:38:00,
2013-07-23 12:53:00,71.6,54.0,29.89,NNE,24,3.0,-999.0,54,-99.99,,,0.00,weatherlink.com 1.10,2013-07-23 17:53:00,
2013-07-23 13:08:00,73.0,57.0,29.89,North,355,0.0,-999.0,58,-99.99,,,0.00,weatherlink.com 1.10,2013-07-23 18:08:00,
2013-07-23 13:23:00,73.7,53.0,29.89,North,355,0.0,-999.0,49,-99.99,,,0.00,weatherlink.com 1.10,2013-07-23 18:23:00,
2013-07-23 13:38:00,73.5,56.0,29.89,NNE,26,0.0,-999.0,55,-99.99,,,0.00,weatherlink.com 1.10,2013-07-23 18:38:00,
2013-07-23 13:53:00,73.3,53.0,29.89,North,9,0.0,-999.0,49,-99.99,,,0.00,weatherlink.com 1.10,2013-07-23 18:53:00,
2013-07-23 14:08:00,73.5,52.0,29.89,North,5,1.0,-999.0,48,-99.99,,,0.00,weatherlink.com 1.10,2013-07-23 19:08:00,
2013-07-23 14:23:00,74.0,54.0,29.89,East,98,0.0,-999.0,50,-99.99,,,0.00,weatherlink.com 1.10,2013-07-23 19:23:00,
2013-07-23 14:38:00,74.9,54.0,29.89,NW,323,0.0,-999.0,48,-99.99,,,0.00,weatherlink.com 1.10,2013-07-23 19:38:00,
2013-07-23 14:53:00,75.6,53.0,29.89,North,360,0.0,-999.0,46,-99.99,,,0.00,weatherlink.com 1.10,2013-07-23 19:53:00,
2013-07-23 15:09:00,76.1,53.0,29.89,North,5,2.0,-999.0,44,-99.99,,,0.00,weatherlink.com 1.10,2013-07-23 20:09:00,
2013-07-23 15:24:00,76.7,53.0,29.89,SE,139,1.0,-999.0,44,-99.99,,,0.00,weatherlink.com 1.10,2013-07-23 20:24:00,
2013-07-23 15:39:00,77.2,52.0,29.89,NW,323,0.0,-999.0,41,-99.99,,,0.00,weatherlink.com 1.10,2013-07-23 20:39:00,
2013-07-23 15:54:00,77.2,55.0,29.88,WNW,289,0.0,-999.0,46,-99.99,,,0.00,weatherlink.com 1.10,2013-07-23 20:54:00,
2013-07-23 16:09:00,77.4,53.0,29.88,NNE,14,1.0,-999.0,43,-99.99,,,0.00,weatherlink.com 1.10,2013-07-23 21:09:00,
2013-07-23 16:24:00,77.4,57.0,29.88,ENE,77,0.0,-999.0,49,-99.99,,,0.00,weatherlink.com 1.10,2013-07-23 21:24:00,
2013-07-23 16:39:00,77.6,54.0,29.87,NNW,342,0.0,-999.0,44,-99.99,,,0.00,weatherlink.com 1.10,2013-07-23 21:39:00,
2013-07-23 16:54:00,77.2,54.0,29.88,ENE,57,0.0,-999.0,44,-99.99,,,0.00,weatherlink.com 1.10,2013-07-23 21:54:00,
2013-07-23 17:09:00,76.8,51.0,29.88,North,5,2.0,-999.0,41,-99.99,,,0.00,weatherlink.com 1.10,2013-07-23 22:09:00,
2013-07-23 17:24:00,76.7,51.0,29.88,North,5,4.0,-999.0,41,-99.99,,,0.00,weatherlink.com 1.10,2013-07-23 22:24:00,
2013-07-23 17:55:00,76.5,52.0,29.88,North,5,2.0,-999.0,42,-99.99,,,0.00,weatherlink.com 1.10,2013-07-23 22:55:00,
2013-07-23 18:10:00,76.3,53.0,29.88,North,5,0.0,-999.0,44,-99.99,,,0.00,weatherlink.com 1.10,2013-07-23 23:10:00,
2013-07-23 18:25:00,76.0,53.0,29.88,North,5,0.0,-999.0,45,-99.99,,,0.00,weatherlink.com 1.10,2013-07-23 23:25:00,
2013-07-23 18:40:00,75.3,52.0,29.88,North,5,0.0,-999.0,45,-99.99,,,0.00,weatherlink.com 1.10,2013-07-23 23:40:00,
2013-07-23 18:55:00,74.2,52.0,29.88,North,5,0.0,-999.0,46,-99.99,,,0.00,weatherlink.com 1.10,2013-07-23 23:55:00,
2013-07-23 19:10:00,72.8,52.0,29.88,ENE,57,0.0,-999.0,49,-99.99,,,0.00,weatherlink.com 1.10,2013-07-24 00:10:00,
2013-07-23 19:25:00,71.6,51.0,29.89,ENE,57,0.0,-999.0,49,-99.99,,,0.00,weatherlink.com 1.10,2013-07-24 00:25:00,
2013-07-23 19:40:00,70.8,51.0,29.89,NE,52,0.0,-999.0,49,-99.99,,,0.00,weatherlink.com 1.10,2013-07-24 00:40:00,
2013-07-23 19:55:00,69.9,50.0,29.90,North,9,0.0,-999.0,50,-99.99,,,0.00,weatherlink.com 1.10,2013-07-24 00:55:00,
2013-07-23 20:10:00,69.3,51.0,29.91,North,9,0.0,-999.0,53,-99.99,,,0.00,weatherlink.com 1.10,2013-07-24 01:10:00,
2013-07-23 20:25:00,68.3,51.0,29.91,North,9,0.0,-999.0,54,-99.99,,,0.00,weatherlink.com 1.10,2013-07-24 01:25:00,
2013-07-23 20:40:00,67.3,50.0,29.91,North,9,1.0,-999.0,54,-99.99,,,0.00,weatherlink.com 1.10,2013-07-24 01:40:00,
2013-07-23 20:55:00,66.3,50.0,29.91,North,9,0.0,-999.0,56,-99.99,,,0.00,weatherlink.com 1.10,2013-07-24 01:55:00,
2013-07-23 21:10:00,65.3,50.0,29.91,North,9,0.0,-999.0,58,-99.99,,,0.00,weatherlink.com 1.10,2013-07-24 02:10:00,
2013-07-23 21:25:00,64.3,49.0,29.91,North,9,0.0,-999.0,58,-99.99,,,0.00,weatherlink.com 1.10,2013-07-24 02:25:00,
2013-07-23 22:10:00,62.1,48.0,29.93,North,9,0.0,-999.0,61,-99.99,,,0.00,weatherlink.com 1.10,2013-07-24 03:10:00,
2013-07-23 22:25:00,61.5,48.0,29.93,North,9,0.0,-999.0,61,-99.99,,,0.00,weatherlink.com 1.10,2013-07-24 03:25:00,
2013-07-23 22:40:00,61.0,48.0,29.93,North,9,0.0,-999.0,63,-99.99,,,0.00,weatherlink.com 1.10,2013-07-24 03:40:00,
2013-07-23 23:10:00,60.4,48.0,29.94,North,9,0.0,-999.0,63,-99.99,,,0.00,weatherlink.com 1.10,2013-07-24 04:10:00,
2013-07-23 23:25:00,60.1,47.0,29.93,North,9,0.0,-999.0,63,-99.99,,,0.00,weatherlink.com 1.10,2013-07-24 04:25:00,
2013-07-23 23:40:00,59.8,47.0,29.94,North,9,0.0,-999.0,63,-99.99,,,0.00,weatherlink.com 1.10,2013-07-24 04:40:00,
2013-07-23 23:55:00,59.3,47.0,29.94,North,9,0.0,-999.0,65,-99.99,,,0.00,weatherlink.com 1.10,2013-07-24 04:55:00,